Airfield :
LOGIN :

Register | Disclaimer

   EN    FR    IT 

 










Legend :    VFR   Marginal VFR   IFR   Intensive IFR   Very Intensive IFR
Visi :
Ceiling :
>= 8 km
>= 3000ft
5 to 8 km
1000 to 3000 ft
1500m to 5 km
500 to 1000 ft
800 to 1500m
200 to 500 ft
< 800m
< 200 ft
Symbols :   Thunderstorms  Fog  Heavy snow  Heavy precipitations  Wind > 20 kt
SIGMETs :     Misc.  Thunderstorms  Icing  Turbulence  Mountain Waves  Volcanic Ashes







- Airport Elevation : 49 ft
- IATA code : SEN
- Download approach charts


EGMC - Southend

CURRENT METAR :
  • 212250Z 00000KT 7000 NSC 13/12 Q1007

EXPIRED METARs :
  • 212220Z 00000KT 8000 NSC 13/12 Q1007
  • 212150Z 00000KT CAVOK 13/12 Q1008
  • 212120Z 00000KT CAVOK 14/13 Q1008
  • 212050Z 01001KT CAVOK 14/13 Q1008

TAF TAF EGMC
Valid from the 22 at 00:00 until the 22 at 09:00 UTC


212259Z 2200/2209 11008KT CAVOK
TEMPO 2200/2203 8000
TEMPO 2203/2209 6000 RA SHRA
PROB30
TEMPO 2203/2208 4000 +SHRA TSRA BKN040CB
BECMG 2206/2209 18010KT
No reported NOTAMs for that airfield.



MET'MAP, your aeronautical weather chart ! - Copyright ORBIFLY December 2007 - Disclaimer

ORBIFLY MET'MAP TEAM :

Programming & Development : Alexandra Zaïnal
Concept & Development : Baudouin d'Aumeries
Co-Development & Prog : Marc-Olivier Méhu
Technical & hardware support : Manuel Goepfert

Contact : metmap@orbifly.com




SOURCES & CREDITS :

   NOAA